Date,TemperatureHighF,TemperatureAvgF,TemperatureLowF,DewpointHighF,DewpointAvgF,DewpointLowF,HumidityHigh,HumidityAvg,HumidityLow,PressureMaxIn,PressureMinIn,WindSpeedMaxMPH,WindSpeedAvgMPH,GustSpeedMaxMPH,PrecipitationSumIn
2013-3-1,53.6,42.4,32.4,32.4,29.8,27.5,82,63,42,30.01,29.90,8,3,15,0.00
2013-3-2,44.8,39.3,34.8,37.2,31.9,27.1,86,75,57,30.00,29.91,9,3,16,0.00
2013-3-3,48.0,38.7,32.7,27.5,23.6,21.0,78,56,35,30.08,29.97,8,3,18,0.00
2013-3-4,60.4,44.5,29.0,34.5,25.1,19.2,76,50,21,30.25,30.09,6,1,8,0.00
2013-3-5,67.1,55.0,42.7,57.5,43.6,31.6,91,66,49,30.12,29.70,13,4,25,0.00
2013-3-6,49.6,42.2,36.5,31.5,26.7,21.4,75,55,43,30.18,29.83,14,6,31,0.00
2013-3-7,61.6,44.6,30.8,37.0,31.7,27.9,90,64,33,30.30,30.17,7,1,14,0.00
2013-3-8,61.8,47.8,33.5,35.1,30.4,27.2,84,54,27,30.34,30.22,5,1,11,0.00
2013-3-9,66.1,50.8,34.6,38.0,32.0,29.2,85,53,25,30.38,30.24,4,0,7,0.00
2013-3-10,69.8,57.4,44.5,50.2,42.3,37.2,81,60,34,30.30,30.15,4,1,9,0.00
2013-3-11,70.1,61.0,50.5,56.8,49.9,42.9,79,68,52,30.17,29.84,8,3,15,0.00
2013-3-12,67.9,59.1,50.0,58.9,47.7,35.2,95,70,35,30.03,29.78,8,4,17,0.00
2013-3-13,60.5,51.5,41.5,35.6,28.9,22.0,73,44,24,30.21,30.04,15,5,25,0.00
2013-3-14,57.5,44.9,32.5,27.7,23.5,20.8,73,44,27,30.35,30.20,5,1,15,0.00
2013-3-15,72.0,55.8,37.5,41.2,33.2,23.4,66,44,30,30.26,30.01,12,3,18,0.00
2013-3-16,78.4,66.8,55.2,45.2,42.6,40.1,65,44,26,30.02,29.86,13,6,22,0.00
2013-3-17,73.2,65.9,57.6,56.9,51.4,45.8,79,60,43,30.02,29.91,10,4,15,0.00
2013-3-18,67.5,59.2,48.2,60.4,53.8,46.2,96,83,75,30.04,29.81,8,1,28,0.00
2013-3-19,71.1,57.7,47.9,51.2,40.0,20.9,98,62,15,30.05,29.87,8,3,17,0.00
2013-3-20,61.5,52.3,43.4,34.6,27.3,22.0,66,40,25,30.13,29.87,7,1,14,0.00
2013-3-21,53.7,45.6,38.8,29.3,19.4,6.4,62,38,18,29.99,29.86,11,4,20,0.00
2013-3-22,50.7,43.7,36.2,35.8,23.9,17.9,64,46,35,30.12,29.99,4,1,7,0.00
2013-3-23,54.0,48.3,44.2,50.5,43.7,36.1,97,85,64,30.08,29.90,4,1,8,0.00
2013-3-24,49.9,48.1,46.1,49.0,47.0,45.0,97,96,93,29.88,29.59,8,1,10,0.00
2013-3-25,49.2,44.3,38.5,45.8,28.9,23.4,97,56,37,30.04,29.65,16,6,27,0.00
2013-3-26,48.3,40.7,33.2,27.7,26.2,24.5,73,57,43,30.27,30.03,9,5,17,0.00
2013-3-27,57.1,43.9,30.5,29.2,26.9,24.3,84,55,28,30.35,30.23,12,3,14,0.00
2013-3-28,62.5,48.2,33.4,34.4,27.9,24.1,81,49,24,30.37,30.22,7,1,11,0.00
2013-3-29,66.7,53.7,39.5,36.3,29.9,22.7,72,43,23,30.38,30.22,5,0,10,0.00
2013-3-30,74.1,62.3,50.6,50.8,43.8,35.9,78,52,33,30.24,30.04,9,2,12,0.00
2013-3-31,75.7,65.7,59.3,62.2,56.2,52.3,90,73,46,30.04,29.85,13,4,18,0.00